createdAt,value
2018-12-25T00:00:42.793Z,4.40
2018-12-25T00:03:47.767Z,4.40
2018-12-25T00:06:52.662Z,3.97
2018-12-25T00:09:57.358Z,3.77
2018-12-25T00:13:02.201Z,4.58
2018-12-25T00:16:06.826Z,4.57
2018-12-25T00:19:11.457Z,4.10
2018-12-25T00:22:16.165Z,4.28
2018-12-25T00:25:21.145Z,4.97
2018-12-25T00:28:25.779Z,4.67
2018-12-25T00:31:30.728Z,5.43
2018-12-25T00:34:36.915Z,5.07
2018-12-25T00:37:41.893Z,5.33
2018-12-25T00:40:46.850Z,5.07
2018-12-25T00:43:51.520Z,5.00
2018-12-25T00:46:56.604Z,5.37
2018-12-25T00:50:01.253Z,4.87
2018-12-25T00:53:06.162Z,5.00
2018-12-25T00:56:10.791Z,5.17
2018-12-25T00:59:15.426Z,5.43
2018-12-25T01:02:20.086Z,4.83
2018-12-25T01:05:25.066Z,5.50
2018-12-25T01:08:29.749Z,5.33
2018-12-25T01:11:34.389Z,5.50
2018-12-25T01:14:39.279Z,4.97
2018-12-25T01:17:43.942Z,4.83
2018-12-25T01:20:48.602Z,5.20
2018-12-25T01:23:53.242Z,5.15
2018-12-25T01:26:58.115Z,4.63
2018-12-25T01:30:02.732Z,4.60
2018-12-25T01:33:07.666Z,5.27
2018-12-25T01:36:12.505Z,5.13
2018-12-25T01:39:19.108Z,5.58
2018-12-25T01:42:23.821Z,5.03
2018-12-25T01:45:28.828Z,5.43
2018-12-25T01:48:33.781Z,5.07
2018-12-25T01:51:38.479Z,4.07
2018-12-25T01:54:43.185Z,5.30
2018-12-25T01:57:48.211Z,4.70
2018-12-25T02:00:52.817Z,5.70
2018-12-25T02:03:57.864Z,5.30
2018-12-25T02:07:02.497Z,4.63
2018-12-25T02:10:07.428Z,4.60
2018-12-25T02:13:15.640Z,4.10
2018-12-25T02:16:20.262Z,4.73
2018-12-25T02:19:25.256Z,4.97
2018-12-25T02:22:29.905Z,5.13
2018-12-25T02:25:34.968Z,4.87
2018-12-25T02:28:39.909Z,4.90
2018-12-25T02:31:44.560Z,5.17
2018-12-25T02:34:49.428Z,4.93
2018-12-25T02:37:54.427Z,5.00
2018-12-25T02:40:59.048Z,5.60
2018-12-25T02:44:03.702Z,5.63
2018-12-25T02:47:08.332Z,6.20
2018-12-25T02:50:14.762Z,6.10
2018-12-25T02:53:19.389Z,6.40
2018-12-25T02:56:24.073Z,5.03
2018-12-25T02:59:28.945Z,5.93
2018-12-25T03:02:33.998Z,5.37
2018-12-25T03:05:38.601Z,6.10
2018-12-25T03:08:43.358Z,5.90
2018-12-25T03:11:47.986Z,6.67
2018-12-25T03:14:52.731Z,7.90
2018-12-25T03:17:57.522Z,6.83
2018-12-25T03:21:02.515Z,7.20
2018-12-25T03:24:07.158Z,7.27
2018-12-25T03:27:12.045Z,7.23
2018-12-25T03:30:16.774Z,7.17
2018-12-25T03:33:21.663Z,7.63
2018-12-25T03:36:26.642Z,7.10
2018-12-25T03:39:31.282Z,7.27
2018-12-25T03:42:35.913Z,7.17
2018-12-25T03:45:40.755Z,7.30
2018-12-25T03:48:45.382Z,6.55
2018-12-25T03:51:50.031Z,6.23
2018-12-25T03:54:57.395Z,7.27
2018-12-25T03:58:02.323Z,7.83
2018-12-25T04:01:06.961Z,6.27
2018-12-25T04:04:11.911Z,7.43
2018-12-25T04:07:16.616Z,7.37
2018-12-25T04:10:22.450Z,7.17
2018-12-25T04:13:27.413Z,8.10
2018-12-25T04:16:32.457Z,8.20
2018-12-25T04:19:37.611Z,7.13
2018-12-25T04:22:42.268Z,7.03
2018-12-25T04:25:46.897Z,7.83
2018-12-25T04:28:51.831Z,7.47
2018-12-25T04:31:56.991Z,6.80
2018-12-25T04:35:01.874Z,7.00
2018-12-25T04:38:06.532Z,7.12
2018-12-25T04:41:11.492Z,6.63
2018-12-25T04:44:16.188Z,6.70
2018-12-25T04:47:20.834Z,7.67
2018-12-25T04:50:29.456Z,7.63
2018-12-25T04:53:31.936Z,8.03
2018-12-25T04:56:36.568Z,7.43
2018-12-25T04:59:43.105Z,7.23
2018-12-25T05:02:47.740Z,7.53
2018-12-25T05:05:52.370Z,6.97
2018-12-25T05:08:57.071Z,6.80
2018-12-25T05:12:01.962Z,7.00
2018-12-25T05:15:07.376Z,6.47
2018-12-25T05:18:12.025Z,6.83
2018-12-25T05:21:16.637Z,5.80
2018-12-25T05:24:21.294Z,6.77
2018-12-25T05:27:26.009Z,6.80
2018-12-25T05:30:31.035Z,6.17
2018-12-25T05:33:35.826Z,7.10
2018-12-25T05:36:40.518Z,6.57
2018-12-25T05:39:45.397Z,5.43
2018-12-25T05:42:50.123Z,5.80
2018-12-25T05:45:54.744Z,5.97
2018-12-25T05:48:59.397Z,5.80
2018-12-25T05:52:04.277Z,6.50
2018-12-25T05:55:08.903Z,6.50
2018-12-25T05:58:13.791Z,7.00
2018-12-25T06:01:19.851Z,6.80
2018-12-25T06:04:24.724Z,6.17
2018-12-25T06:07:29.654Z,6.75
2018-12-25T06:10:34.323Z,7.07
2018-12-25T06:13:39.025Z,6.37
2018-12-25T06:16:43.928Z,6.23
2018-12-25T06:19:48.634Z,6.87
2018-12-25T06:22:53.273Z,6.43
2018-12-25T06:26:00.885Z,7.47
2018-12-25T06:29:05.788Z,6.72
2018-12-25T06:32:10.524Z,6.90
2018-12-25T06:35:15.145Z,7.20
2018-12-25T06:38:19.794Z,7.17
2018-12-25T06:41:24.425Z,7.33
2018-12-25T06:44:29.510Z,7.37
2018-12-25T06:47:34.550Z,8.53
2018-12-25T06:50:39.215Z,6.70
2018-12-25T06:53:44.048Z,8.03
2018-12-25T06:56:48.733Z,7.47
2018-12-25T06:59:53.384Z,7.00
2018-12-25T07:02:58.043Z,7.17
2018-12-25T07:06:02.736Z,6.80
2018-12-25T07:09:09.096Z,7.57
2018-12-25T07:12:15.196Z,6.80
2018-12-25T07:15:19.833Z,6.97
2018-12-25T07:18:24.766Z,7.70
2018-12-25T07:21:30.029Z,7.13
2018-12-25T07:24:35.235Z,7.27
2018-12-25T07:27:40.228Z,8.13
2018-12-25T07:30:45.012Z,7.33
2018-12-25T07:33:50.062Z,7.77
2018-12-25T07:36:54.715Z,7.37
2018-12-25T07:39:59.485Z,7.83
2018-12-25T07:43:04.523Z,7.37
2018-12-25T07:46:09.267Z,6.90
2018-12-25T07:49:14.365Z,6.77
2018-12-25T07:52:19.399Z,5.77
2018-12-25T07:55:27.259Z,7.07
2018-12-25T07:58:31.981Z,6.80
2018-12-25T08:01:36.745Z,7.23
2018-12-25T08:04:41.446Z,7.47
2018-12-25T08:07:46.075Z,7.53
2018-12-25T08:10:51.030Z,7.10
2018-12-25T08:13:55.762Z,8.10
2018-12-25T08:17:00.382Z,8.03
2018-12-25T08:20:07.629Z,6.87
2018-12-25T08:23:12.488Z,8.33
2018-12-25T08:26:17.154Z,7.37
2018-12-25T08:29:21.872Z,7.57
2018-12-25T08:32:27.065Z,7.25
2018-12-25T08:35:31.724Z,7.27
2018-12-25T08:38:36.363Z,7.70
2018-12-25T08:41:41.450Z,7.13
2018-12-25T08:44:46.395Z,7.37
2018-12-25T08:47:53.499Z,7.30
2018-12-25T08:50:58.920Z,8.03
2018-12-25T08:54:03.584Z,7.12
2018-12-25T08:57:08.396Z,7.73
2018-12-25T09:00:13.751Z,6.70
2018-12-25T09:03:18.393Z,5.93
2018-12-25T09:06:24.908Z,8.03
2018-12-25T09:09:29.591Z,6.40
2018-12-25T09:12:35.740Z,7.07
2018-12-25T09:15:40.757Z,6.40
2018-12-25T09:18:45.814Z,6.80
2018-12-25T09:21:50.938Z,6.97
2018-12-25T09:24:55.741Z,6.50
2018-12-25T09:28:00.398Z,6.73
2018-12-25T09:31:05.062Z,6.20
2018-12-25T09:34:09.999Z,6.83
2018-12-25T09:37:14.888Z,7.03
2018-12-25T09:40:19.574Z,7.73
2018-12-25T09:43:24.370Z,7.00
2018-12-25T09:46:28.983Z,6.70
2018-12-25T09:49:33.962Z,7.33
2018-12-25T09:52:38.897Z,7.42
2018-12-25T09:55:43.697Z,6.23
2018-12-25T09:58:48.331Z,6.57
2018-12-25T10:01:52.998Z,6.57
2018-12-25T10:04:57.624Z,6.33
2018-12-25T10:08:02.297Z,6.37
2018-12-25T10:11:07.006Z,7.37
2018-12-25T10:14:11.997Z,7.53
2018-12-25T10:17:16.925Z,7.05
2018-12-25T10:20:21.764Z,6.60
2018-12-25T10:23:26.398Z,6.23
2018-12-25T10:26:31.080Z,7.07
2018-12-25T10:29:35.729Z,8.27
2018-12-25T10:32:40.644Z,6.77
2018-12-25T10:35:45.239Z,7.80
2018-12-25T10:38:49.867Z,7.73
2018-12-25T10:41:54.553Z,7.47
2018-12-25T10:44:59.166Z,8.50
2018-12-25T10:48:04.129Z,7.05
2018-12-25T10:51:08.759Z,6.90
2018-12-25T10:54:13.389Z,6.33
2018-12-25T10:57:18.339Z,6.80
2018-12-25T11:00:23.263Z,6.10
2018-12-25T11:03:28.199Z,6.83
2018-12-25T11:06:33.018Z,7.40
2018-12-25T11:09:37.894Z,6.53
2018-12-25T11:12:42.518Z,6.77
2018-12-25T11:16:06.797Z,5.93
2018-12-25T11:19:23.406Z,8.90
2018-12-25T11:22:47.355Z,6.70
2018-12-25T11:26:11.321Z,7.00
2018-12-25T11:29:54.590Z,6.08
2018-12-25T11:33:18.540Z,6.47
2018-12-25T11:36:42.741Z,5.70
2018-12-25T11:40:06.726Z,5.60
2018-12-25T11:43:30.677Z,5.50
2018-12-25T11:46:54.649Z,6.53
2018-12-25T11:50:18.622Z,6.47
2018-12-25T11:57:25.814Z,6.37
2018-12-25T12:00:50.383Z,6.23
2018-12-25T12:11:27.377Z,6.70
2018-12-25T12:14:51.562Z,5.63
2018-12-25T12:18:08.584Z,5.70
2018-12-25T12:21:32.576Z,5.83
2018-12-25T12:24:56.494Z,5.43
2018-12-25T12:28:20.708Z,6.33
2018-12-25T12:31:25.563Z,6.50
2018-12-25T12:34:49.756Z,5.23
2018-12-25T12:38:14.067Z,5.90
2018-12-25T12:41:38.303Z,6.43
2018-12-25T12:48:45.530Z,4.12
2018-12-25T12:52:28.551Z,5.13
2018-12-25T12:55:52.499Z,4.87
2018-12-25T12:59:16.523Z,5.20
2018-12-25T13:02:40.726Z,4.83
2018-12-25T13:06:04.690Z,5.40
2018-12-25T13:12:58.593Z,5.33
2018-12-25T13:16:22.877Z,4.57
2018-12-25T13:19:40.314Z,5.60
2018-12-25T13:23:04.322Z,5.62
2018-12-25T13:26:28.276Z,4.83
2018-12-25T13:29:52.236Z,5.77
2018-12-25T13:33:16.232Z,5.47
2018-12-25T13:36:40.203Z,5.30
2018-12-25T13:43:54.742Z,5.10
2018-12-25T13:47:38.020Z,5.27
2018-12-25T13:51:02.026Z,5.40
2018-12-25T13:54:25.991Z,5.80
2018-12-25T13:57:49.947Z,5.20
2018-12-25T14:01:13.970Z,6.17
2018-12-25T14:04:38.270Z,6.00
2018-12-25T14:08:02.233Z,5.67
2018-12-25T14:14:56.355Z,5.70
2018-12-25T14:18:13.047Z,6.50
2018-12-25T14:21:37.519Z,5.90
2018-12-25T14:25:02.682Z,5.50
2018-12-25T14:28:26.656Z,8.07
2018-12-25T14:32:09.876Z,6.43
2018-12-25T14:35:34.179Z,7.97
2018-12-25T14:38:58.494Z,6.80
2018-12-25T14:42:22.481Z,6.07
2018-12-25T14:45:46.445Z,6.33
2018-12-25T14:49:10.438Z,5.65
2018-12-25T14:52:43.115Z,5.60
2018-12-25T14:56:07.071Z,6.73
2018-12-25T14:59:31.325Z,8.20
2018-12-25T15:06:25.208Z,4.97
2018-12-25T15:13:32.398Z,5.43
2018-12-25T15:20:16.835Z,4.53
2018-12-25T15:23:40.798Z,4.93
2018-12-25T15:27:04.767Z,5.03
2018-12-25T15:34:30.929Z,5.83
2018-12-25T15:37:54.895Z,5.33
2018-12-25T15:41:18.990Z,5.27
2018-12-25T15:44:43.278Z,5.10
2018-12-25T15:51:37.391Z,5.03
2018-12-25T15:55:01.368Z,5.70
2018-12-25T15:58:25.370Z,5.10
2018-12-25T16:02:08.677Z,5.57
2018-12-25T16:05:32.966Z,5.43
2018-12-25T16:08:37.614Z,6.10
2018-12-25T16:11:42.635Z,5.77
2018-12-25T16:15:07.136Z,6.20
2018-12-25T16:18:23.974Z,5.37
2018-12-25T16:21:48.106Z,5.80
2018-12-25T16:25:12.111Z,6.33
2018-12-25T16:28:55.365Z,6.67
2018-12-25T16:32:19.746Z,6.95
2018-12-25T16:35:43.720Z,8.20
2018-12-25T16:39:07.764Z,7.97
2018-12-25T16:42:31.740Z,8.23
2018-12-25T16:46:15.078Z,7.30
2018-12-25T16:49:58.087Z,7.77
2018-12-25T16:53:22.342Z,7.17
2018-12-25T17:00:29.563Z,14.27
2018-12-25T17:03:53.635Z,11.70
2018-12-25T17:07:36.698Z,10.10
2018-12-25T17:11:00.676Z,9.90
2018-12-25T17:14:05.366Z,10.63
2018-12-25T17:17:11.561Z,9.40
2018-12-25T17:20:16.206Z,8.77
2018-12-25T17:23:20.869Z,7.33
2018-12-25T17:26:25.870Z,7.00
2018-12-25T17:29:30.749Z,7.57
2018-12-25T17:32:38.150Z,7.00
2018-12-25T17:35:42.943Z,6.50
2018-12-25T17:38:47.909Z,6.73
2018-12-25T17:41:52.590Z,5.90
2018-12-25T17:44:57.374Z,7.30
2018-12-25T17:48:02.173Z,6.57
2018-12-25T17:51:07.055Z,7.43
2018-12-25T17:54:11.701Z,8.10
2018-12-25T17:57:19.260Z,9.63
2018-12-25T18:00:23.973Z,14.47
2018-12-25T18:03:28.621Z,25.73
2018-12-25T18:06:33.297Z,22.23
2018-12-25T18:09:38.008Z,15.90
2018-12-25T18:12:42.704Z,13.47
2018-12-25T18:15:47.583Z,13.97
2018-12-25T18:18:52.525Z,14.20
2018-12-25T18:21:57.191Z,8.88
2018-12-25T18:25:01.852Z,9.50
2018-12-25T18:28:06.747Z,9.07
2018-12-25T18:31:11.987Z,10.10
2018-12-25T18:34:16.889Z,9.50
2018-12-25T18:37:21.576Z,9.63
2018-12-25T18:40:26.814Z,10.57
2018-12-25T18:43:31.704Z,8.87
2018-12-25T18:46:36.493Z,9.17
2018-12-25T18:49:41.227Z,10.27
2018-12-25T18:52:46.210Z,10.37
2018-12-25T18:55:50.886Z,9.03
2018-12-25T18:58:57.497Z,8.40
2018-12-25T19:02:04.273Z,8.77
2018-12-25T19:05:08.832Z,8.37
2018-12-25T19:08:13.971Z,10.47
2018-12-25T19:11:18.617Z,8.30
2018-12-25T19:14:23.559Z,7.33
2018-12-25T19:17:28.286Z,8.15
2018-12-25T19:20:33.077Z,8.33
2018-12-25T19:23:39.016Z,8.70
2018-12-25T19:26:43.719Z,8.33
2018-12-25T19:33:23.876Z,8.93
2018-12-25T19:36:28.897Z,8.30
2018-12-25T19:39:33.556Z,10.27
2018-12-25T19:42:38.209Z,10.20
2018-12-25T19:45:44.959Z,10.67
2018-12-25T19:48:49.664Z,9.77
2018-12-25T19:51:54.615Z,10.45
2018-12-25T19:54:59.660Z,9.70
2018-12-25T19:58:04.750Z,8.85
2018-12-25T20:01:09.481Z,8.33
2018-12-25T20:04:21.643Z,9.67
2018-12-25T20:07:56.312Z,11.80
2018-12-25T20:11:30.008Z,8.63
2018-12-25T20:15:09.944Z,8.03
2018-12-25T20:18:48.024Z,8.33
2018-12-25T20:22:28.767Z,9.07
2018-12-25T20:26:19.968Z,9.37
2018-12-25T20:30:13.567Z,8.40
2018-12-25T20:34:09.384Z,8.03
2018-12-25T20:37:46.219Z,10.07
2018-12-25T20:41:07.427Z,10.20
2018-12-25T20:44:54.489Z,10.70
2018-12-25T20:48:31.002Z,9.60
2018-12-25T20:52:13.476Z,11.13
2018-12-25T20:55:29.159Z,10.73
2018-12-25T20:59:00.584Z,8.97
2018-12-25T21:02:15.722Z,9.23
2018-12-25T21:05:59.673Z,9.23
2018-12-25T21:09:47.919Z,9.30
2018-12-25T21:13:42.288Z,9.20
2018-12-25T21:17:18.620Z,9.50
2018-12-25T21:20:52.141Z,9.47
2018-12-25T21:24:51.677Z,9.53
2018-12-25T21:27:54.882Z,8.00
2018-12-25T21:31:00.013Z,8.50
2018-12-25T21:34:05.659Z,9.03
2018-12-25T21:37:19.705Z,8.93
2018-12-25T21:41:31.966Z,8.93
2018-12-25T21:44:40.220Z,9.13
2018-12-25T21:47:45.335Z,9.80
2018-12-25T21:50:50.226Z,10.07
2018-12-25T21:53:54.999Z,10.03
2018-12-25T21:56:59.682Z,9.97
2018-12-25T22:00:07.314Z,9.47
2018-12-25T22:03:12.091Z,9.27
2018-12-25T22:06:16.901Z,10.57
2018-12-25T22:09:21.591Z,9.07
2018-12-25T22:12:26.487Z,8.83
2018-12-25T22:15:31.180Z,9.93
2018-12-25T22:18:36.171Z,9.10
2018-12-25T22:21:40.823Z,8.77
2018-12-25T22:24:45.524Z,8.67
2018-12-25T22:27:50.562Z,9.17
2018-12-25T22:30:55.613Z,9.13
2018-12-25T22:34:00.286Z,11.00
2018-12-25T22:37:05.136Z,10.80
2018-12-25T22:40:09.743Z,11.43
2018-12-25T22:43:14.434Z,10.37
2018-12-25T22:46:19.254Z,10.57
2018-12-25T22:49:23.926Z,10.20
2018-12-25T22:52:28.897Z,9.73
2018-12-25T22:55:35.999Z,9.23
2018-12-25T22:58:40.091Z,8.77
2018-12-25T23:01:45.071Z,8.83
2018-12-25T23:04:50.006Z,9.60
2018-12-25T23:07:55.041Z,9.98
2018-12-25T23:10:59.689Z,9.70
2018-12-25T23:17:35.114Z,9.77
2018-12-25T23:20:52.421Z,10.00
2018-12-25T23:24:16.406Z,9.47
2018-12-25T23:27:40.452Z,10.50
2018-12-25T23:31:04.436Z,9.27
2018-12-25T23:34:28.474Z,8.47
2018-12-25T23:37:52.601Z,10.33
2018-12-25T23:44:59.595Z,8.60
2018-12-25T23:48:23.566Z,8.57
2018-12-25T23:51:47.551Z,9.20
2018-12-25T23:55:11.886Z,9.03
2018-12-25T23:58:35.876Z,8.83
